createdAt,value
2019-05-13T00:00:34.130Z,98400.28
2019-05-13T00:03:03.772Z,98401.69
2019-05-13T00:05:33.981Z,98409.41
2019-05-13T00:08:03.427Z,98412.78
2019-05-13T00:10:34.784Z,98413.41
2019-05-13T00:13:04.381Z,98416.68
2019-05-13T00:15:34.179Z,98411.92
2019-05-13T00:18:03.823Z,98409.01
2019-05-13T00:20:33.791Z,98406.35
2019-05-13T00:23:03.878Z,98409.70
2019-05-13T00:25:34.004Z,98410.82
2019-05-13T00:28:04.011Z,98411.97
2019-05-13T00:30:34.195Z,98417.73
2019-05-13T00:33:03.992Z,98412.82
2019-05-13T00:35:33.938Z,98419.06
2019-05-13T00:38:03.937Z,98415.80
2019-05-13T00:40:33.772Z,98417.47
2019-05-13T00:43:03.784Z,98404.67
2019-05-13T00:45:33.886Z,98403.05
2019-05-13T00:48:04.599Z,98395.47
2019-05-13T00:50:33.919Z,98401.04
2019-05-13T00:53:04.340Z,98403.63
2019-05-13T00:55:34.541Z,98402.34
2019-05-13T00:58:04.436Z,98408.09
2019-05-13T01:00:34.090Z,98414.97
2019-05-13T01:03:04.026Z,98423.66
2019-05-13T01:05:34.076Z,98421.68
2019-05-13T01:08:04.218Z,98422.29
2019-05-13T01:10:34.550Z,98430.68
2019-05-13T01:13:04.724Z,98436.75
2019-05-13T01:15:34.524Z,98428.58
2019-05-13T01:18:03.973Z,98422.43
2019-05-13T01:20:34.607Z,98427.95
2019-05-13T01:23:03.940Z,98428.14
2019-05-13T01:25:34.094Z,98430.73
2019-05-13T01:28:04.516Z,98431.31
2019-05-13T01:30:34.523Z,98431.11
2019-05-13T01:33:04.297Z,98431.97
2019-05-13T01:35:34.351Z,98436.52
2019-05-13T01:38:04.495Z,98438.08
2019-05-13T01:40:34.828Z,98443.12
2019-05-13T01:43:03.933Z,98434.12
2019-05-13T01:45:33.733Z,98424.20
2019-05-13T01:48:07.496Z,98428.97
2019-05-13T01:50:33.979Z,98427.95
2019-05-13T01:53:04.145Z,98426.65
2019-05-13T01:55:34.184Z,98423.29
2019-05-13T01:58:04.370Z,98425.02
2019-05-13T02:00:35.277Z,98421.13
2019-05-13T02:03:04.379Z,98425.47
2019-05-13T02:05:33.976Z,98425.66
2019-05-13T02:08:04.309Z,98433.08
2019-05-13T02:10:54.320Z,98431.67
2019-05-13T02:13:24.798Z,98428.98
2019-05-13T02:15:55.189Z,98427.20
2019-05-13T02:18:24.721Z,98426.69
2019-05-13T02:20:55.495Z,98437.73
2019-05-13T02:23:24.411Z,98444.13
2019-05-13T02:25:54.142Z,98445.19
2019-05-13T02:28:24.845Z,98444.69
2019-05-13T02:30:56.082Z,98460.67
2019-05-13T02:33:24.366Z,98465.30
2019-05-13T02:35:53.788Z,98462.87
2019-05-13T02:38:28.916Z,98469.83
2019-05-13T02:40:53.759Z,98468.70
2019-05-13T02:43:23.709Z,98466.68
2019-05-13T02:45:54.180Z,98470.71
2019-05-13T02:48:24.047Z,98473.82
2019-05-13T02:50:53.933Z,98475.25
2019-05-13T02:53:24.115Z,98475.85
2019-05-13T02:55:53.659Z,98476.57
2019-05-13T02:58:24.304Z,98486.95
2019-05-13T03:00:53.817Z,98489.70
2019-05-13T03:03:23.664Z,98493.69
2019-05-13T03:05:53.638Z,98495.98
2019-05-13T03:08:38.633Z,98494.21
2019-05-13T03:10:53.752Z,98504.08
2019-05-13T03:13:23.665Z,98497.44
2019-05-13T03:16:12.812Z,98502.86
2019-05-13T03:18:43.191Z,98504.38
2019-05-13T03:21:12.726Z,98504.38
2019-05-13T03:23:43.977Z,98505.17
2019-05-13T03:26:13.165Z,98500.33
2019-05-13T03:28:43.646Z,98504.79
2019-05-13T03:31:16.978Z,98505.89
2019-05-13T03:33:46.470Z,98512.09
2019-05-13T03:36:16.107Z,98523.34
2019-05-13T03:38:59.595Z,98522.48
2019-05-13T03:41:17.590Z,98535.84
2019-05-13T03:43:46.339Z,98531.13
2019-05-13T03:46:15.066Z,98530.81
2019-05-13T03:48:45.182Z,98535.16
2019-05-13T03:51:14.191Z,98533.63
2019-05-13T03:53:43.797Z,98538.42
2019-05-13T03:56:13.314Z,98540.53
2019-05-13T03:58:43.363Z,98539.67
2019-05-13T04:01:13.357Z,98541.92
2019-05-13T04:03:44.091Z,98539.38
2019-05-13T04:06:13.979Z,98538.92
2019-05-13T04:08:43.971Z,98550.64
2019-05-13T04:11:13.401Z,98548.54
2019-05-13T04:13:43.132Z,98551.98
2019-05-13T04:16:12.878Z,98551.92
2019-05-13T04:18:43.158Z,98552.66
2019-05-13T04:21:13.310Z,98557.03
2019-05-13T04:23:42.958Z,98550.49
2019-05-13T04:26:14.964Z,98558.20
2019-05-13T04:28:43.524Z,98557.17
2019-05-13T04:31:14.108Z,98556.06
2019-05-13T04:33:43.251Z,98561.11
2019-05-13T04:36:13.262Z,98554.45
2019-05-13T04:38:44.132Z,98559.02
2019-05-13T04:41:13.150Z,98558.30
2019-05-13T04:43:43.453Z,98561.78
2019-05-13T04:46:14.005Z,98563.16
2019-05-13T04:48:44.168Z,98564.44
2019-05-13T04:51:14.207Z,98565.63
2019-05-13T04:53:43.066Z,98567.27
2019-05-13T04:56:13.742Z,98564.75
2019-05-13T04:58:43.185Z,98563.92
2019-05-13T05:01:27.279Z,98565.95
2019-05-13T05:04:03.406Z,98557.41
2019-05-13T05:06:52.549Z,98558.67
2019-05-13T05:10:16.082Z,98557.88
2019-05-13T05:12:42.689Z,98558.78
2019-05-13T05:15:32.381Z,98564.39
2019-05-13T05:18:15.844Z,98570.84
2019-05-13T05:21:02.503Z,98575.98
2019-05-13T05:23:58.000Z,98579.83
2019-05-13T05:26:46.020Z,98579.42
2019-05-13T05:29:36.992Z,98574.65
2019-05-13T05:32:17.596Z,98568.28
2019-05-13T05:35:01.315Z,98561.75
2019-05-13T05:38:06.722Z,98562.38
2019-05-13T05:40:37.178Z,98564.70
2019-05-13T05:43:06.996Z,98571.00
2019-05-13T05:45:37.217Z,98568.81
2019-05-13T05:48:08.034Z,98568.36
2019-05-13T05:50:37.464Z,98567.31
2019-05-13T05:53:06.868Z,98564.35
2019-05-13T05:55:36.892Z,98566.85
2019-05-13T05:58:07.163Z,98558.36
2019-05-13T06:00:41.539Z,98560.08
2019-05-13T06:03:13.578Z,98561.20
2019-05-13T06:05:41.978Z,98560.06
2019-05-13T06:08:11.480Z,98568.11
2019-05-13T06:10:49.708Z,98561.28
2019-05-13T06:13:12.194Z,98568.39
2019-05-13T06:15:42.045Z,98573.77
2019-05-13T06:18:11.676Z,98567.27
2019-05-13T06:20:41.872Z,98571.20
2019-05-13T06:23:11.487Z,98574.19
2019-05-13T06:25:42.733Z,98577.20
2019-05-13T06:28:12.378Z,98574.63
2019-05-13T06:30:41.592Z,98578.89
2019-05-13T06:33:12.071Z,98579.66
2019-05-13T06:35:44.532Z,98580.56
2019-05-13T06:38:11.910Z,98574.93
2019-05-13T06:40:42.427Z,98570.67
2019-05-13T06:43:11.995Z,98567.56
2019-05-13T06:45:42.034Z,98564.90
2019-05-13T06:48:11.775Z,98577.23
2019-05-13T06:50:41.595Z,98577.95
2019-05-13T06:53:12.632Z,98582.11
2019-05-13T06:55:41.819Z,98579.72
2019-05-13T06:58:11.399Z,98576.31
2019-05-13T07:00:42.805Z,98583.47
2019-05-13T07:03:12.616Z,98575.86
2019-05-13T07:05:42.331Z,98576.16
2019-05-13T07:08:12.013Z,98577.25
2019-05-13T07:10:41.516Z,98578.05
2019-05-13T07:13:11.694Z,98583.69
2019-05-13T07:15:41.756Z,98585.13
2019-05-13T07:18:11.681Z,98577.42
2019-05-13T07:20:42.673Z,98580.75
2019-05-13T07:23:12.164Z,98576.59
2019-05-13T07:25:41.978Z,98576.28
2019-05-13T07:28:12.627Z,98577.59
2019-05-13T07:30:45.595Z,98579.95
2019-05-13T07:33:14.305Z,98578.78
2019-05-13T07:35:45.359Z,98584.37
2019-05-13T07:38:13.700Z,98585.59
2019-05-13T07:40:42.450Z,98593.81
2019-05-13T07:43:12.293Z,98595.73
2019-05-13T07:45:42.288Z,98599.56
2019-05-13T07:48:20.519Z,98601.84
2019-05-13T07:50:53.172Z,98594.29
2019-05-13T07:53:32.223Z,98593.82
2019-05-13T07:56:01.930Z,98587.09
2019-05-13T07:58:36.472Z,98595.34
2019-05-13T08:01:02.380Z,98597.87
2019-05-13T08:03:31.827Z,98609.56
2019-05-13T08:06:02.047Z,98617.34
2019-05-13T08:08:32.380Z,98611.44
2019-05-13T08:11:01.326Z,98605.95
2019-05-13T08:13:31.463Z,98592.38
2019-05-13T08:16:02.052Z,98595.76
2019-05-13T08:18:31.854Z,98596.98
2019-05-13T08:21:01.969Z,98601.20
2019-05-13T08:23:32.374Z,98600.69
2019-05-13T08:26:02.169Z,98599.09
2019-05-13T08:28:32.325Z,98605.48
2019-05-13T08:31:02.031Z,98602.09
2019-05-13T08:33:32.090Z,98600.48
2019-05-13T08:36:01.664Z,98597.30
2019-05-13T08:38:31.903Z,98600.84
2019-05-13T08:41:01.875Z,98594.95
2019-05-13T08:43:31.750Z,98584.81
2019-05-13T08:46:01.951Z,98582.58
2019-05-13T08:48:32.395Z,98576.05
2019-05-13T08:51:03.010Z,98563.41
2019-05-13T08:53:31.853Z,98564.55
2019-05-13T08:56:01.663Z,98553.92
2019-05-13T08:58:32.048Z,98552.13
2019-05-13T09:01:02.145Z,98550.50
2019-05-13T09:03:32.543Z,98553.49
2019-05-13T09:06:02.843Z,98547.52
2019-05-13T09:08:32.101Z,98547.64
2019-05-13T09:11:01.734Z,98551.30
2019-05-13T09:13:32.774Z,98552.06
2019-05-13T09:16:02.348Z,98547.69
2019-05-13T09:18:32.360Z,98545.53
2019-05-13T09:21:02.724Z,98545.47
2019-05-13T09:23:31.575Z,98545.22
2019-05-13T09:26:02.632Z,98545.58
2019-05-13T09:28:32.439Z,98531.87
2019-05-13T09:31:02.047Z,98531.77
2019-05-13T09:33:32.547Z,98530.42
2019-05-13T09:36:02.336Z,98524.22
2019-05-13T09:38:32.590Z,98520.11
2019-05-13T09:41:02.022Z,98529.30
2019-05-13T09:43:31.596Z,98531.30
2019-05-13T09:46:01.680Z,98528.32
2019-05-13T09:48:31.971Z,98534.77
2019-05-13T09:51:02.497Z,98543.14
2019-05-13T09:53:32.603Z,98548.53
2019-05-13T09:56:02.473Z,98541.67
2019-05-13T09:58:33.007Z,98539.80
2019-05-13T10:01:02.099Z,98552.99
2019-05-13T10:03:33.017Z,98552.40
2019-05-13T10:06:02.442Z,98543.81
2019-05-13T10:08:32.695Z,98545.87
2019-05-13T10:11:01.857Z,98538.80
2019-05-13T10:13:31.676Z,98535.79
2019-05-13T10:16:00.866Z,98535.27
2019-05-13T10:18:32.286Z,98540.09
2019-05-13T10:21:02.351Z,98550.05
2019-05-13T10:23:32.981Z,98545.89
2019-05-13T10:26:04.988Z,98544.52
2019-05-13T10:28:34.329Z,98534.28
2019-05-13T10:31:03.340Z,98533.59
2019-05-13T10:33:32.376Z,98546.00
2019-05-13T10:36:03.367Z,98536.48
2019-05-13T10:38:32.881Z,98536.25
2019-05-13T10:41:03.260Z,98537.95
2019-05-13T10:43:32.952Z,98534.75
2019-05-13T10:46:02.927Z,98535.58
2019-05-13T10:48:31.960Z,98535.56
2019-05-13T10:51:02.313Z,98534.78
2019-05-13T10:53:32.119Z,98530.03
2019-05-13T10:56:03.077Z,98507.37
2019-05-13T10:58:31.574Z,98512.89
2019-05-13T11:01:02.866Z,98510.09
2019-05-13T11:03:32.917Z,98496.93
2019-05-13T11:06:01.452Z,98508.92
2019-05-13T11:08:33.114Z,98511.41
2019-05-13T11:11:02.162Z,98520.52
2019-05-13T11:13:49.628Z,98534.98
2019-05-13T11:16:02.453Z,98525.87
2019-05-13T11:18:31.253Z,98507.39
2019-05-13T11:21:02.047Z,98496.03
2019-05-13T11:23:32.225Z,98504.03
2019-05-13T11:26:03.229Z,98517.23
2019-05-13T11:28:32.185Z,98514.75
2019-05-13T11:31:03.195Z,98516.97
2019-05-13T11:33:31.917Z,98498.34
2019-05-13T11:36:03.289Z,98492.25
2019-05-13T11:38:32.662Z,98494.53
2019-05-13T11:41:02.378Z,98492.25
2019-05-13T11:43:33.090Z,98486.89
2019-05-13T11:46:02.368Z,98482.18
2019-05-13T11:48:32.305Z,98476.83
2019-05-13T11:51:04.018Z,98475.08
2019-05-13T11:53:34.602Z,98474.37
2019-05-13T11:56:03.672Z,98476.09
2019-05-13T11:58:32.727Z,98455.96
2019-05-13T12:01:02.519Z,98458.45
2019-05-13T12:03:32.580Z,98453.11
2019-05-13T12:06:02.592Z,98457.78
2019-05-13T12:08:34.069Z,98447.08
2019-05-13T12:11:04.229Z,98445.25
2019-05-13T12:13:32.980Z,98450.77
2019-05-13T12:16:03.687Z,98441.48
2019-05-13T12:18:32.264Z,98447.25
2019-05-13T12:21:03.521Z,98451.81
2019-05-13T12:23:31.458Z,98451.05
2019-05-13T12:26:04.316Z,98449.94
2019-05-13T12:28:30.604Z,98443.66
2019-05-13T12:31:02.950Z,98438.39
2019-05-13T12:33:32.371Z,98434.26
2019-05-13T12:36:01.985Z,98426.91
2019-05-13T12:38:33.074Z,98417.76
2019-05-13T12:41:05.064Z,98418.56
2019-05-13T12:43:32.057Z,98419.98
2019-05-13T12:46:02.327Z,98416.97
2019-05-13T12:48:31.396Z,98420.97
2019-05-13T12:51:02.883Z,98421.00
2019-05-13T12:53:32.212Z,98425.69
2019-05-13T12:56:03.196Z,98425.97
2019-05-13T12:58:33.972Z,98420.49
2019-05-13T13:01:01.941Z,98419.41
2019-05-13T13:03:32.226Z,98424.98
2019-05-13T13:06:22.608Z,98407.02
2019-05-13T13:08:43.040Z,98416.67
2019-05-13T13:11:02.218Z,98420.83
2019-05-13T13:13:56.209Z,98434.24
2019-05-13T13:16:03.503Z,98415.16
2019-05-13T13:18:31.885Z,98406.78
2019-05-13T13:21:06.309Z,98399.11
2019-05-13T13:23:34.073Z,98399.64
2019-05-13T13:26:03.043Z,98409.00
2019-05-13T13:28:34.168Z,98402.31
2019-05-13T13:31:04.323Z,98392.94
2019-05-13T13:33:34.429Z,98391.66
2019-05-13T13:36:05.237Z,98380.83
2019-05-13T13:38:33.756Z,98368.20
2019-05-13T13:41:04.089Z,98372.63
2019-05-13T13:43:37.011Z,98364.15
2019-05-13T13:46:08.682Z,98362.46
2019-05-13T13:48:34.001Z,98366.01
2019-05-13T13:51:04.994Z,98356.82
2019-05-13T13:53:33.519Z,98361.11
2019-05-13T13:56:02.506Z,98358.50
2019-05-13T13:58:32.634Z,98359.58
2019-05-13T14:01:10.543Z,98350.78
2019-05-13T14:03:33.906Z,98345.86
2019-05-13T14:06:06.183Z,98348.81
2019-05-13T14:08:32.998Z,98344.27
2019-05-13T14:11:02.165Z,98356.00
2019-05-13T14:13:32.364Z,98349.38
2019-05-13T14:16:02.011Z,98347.87
2019-05-13T14:18:31.710Z,98351.66
2019-05-13T14:21:03.144Z,98353.95
2019-05-13T14:23:31.754Z,98360.77
2019-05-13T14:26:00.727Z,98359.38
2019-05-13T14:28:29.447Z,98351.52
2019-05-13T14:30:58.154Z,98353.75
2019-05-13T14:33:26.917Z,98351.48
2019-05-13T14:35:55.629Z,98351.25
2019-05-13T14:38:26.621Z,98345.91
2019-05-13T14:40:55.512Z,98349.89
2019-05-13T14:43:24.212Z,98348.34
2019-05-13T14:45:53.073Z,98349.46
2019-05-13T14:48:22.382Z,98342.97
2019-05-13T14:50:52.247Z,98344.32
2019-05-13T14:53:21.555Z,98340.09
2019-05-13T14:55:51.821Z,98343.56
2019-05-13T14:58:21.910Z,98342.88
2019-05-13T15:01:10.814Z,98340.78
2019-05-13T15:03:21.739Z,98334.64
2019-05-13T15:05:50.509Z,98339.95
2019-05-13T15:08:23.214Z,98344.36
2019-05-13T15:10:53.145Z,98343.88
2019-05-13T15:13:20.493Z,98336.39
2019-05-13T15:15:51.489Z,98337.87
2019-05-13T15:18:22.130Z,98337.13
2019-05-13T15:20:50.173Z,98324.83
2019-05-13T15:23:22.185Z,98324.36
2019-05-13T15:25:51.481Z,98309.38
2019-05-13T15:28:22.148Z,98308.56
2019-05-13T15:30:51.569Z,98316.94
2019-05-13T15:33:21.499Z,98318.16
2019-05-13T15:35:51.951Z,98321.49
2019-05-13T15:38:20.870Z,98324.13
2019-05-13T15:40:51.995Z,98322.12
2019-05-13T15:43:22.253Z,98309.74
2019-05-13T15:45:51.326Z,98304.92
2019-05-13T15:48:22.193Z,98311.27
2019-05-13T15:50:51.333Z,98309.31
2019-05-13T15:53:21.498Z,98309.37
2019-05-13T15:55:51.660Z,98307.00
2019-05-13T15:58:37.714Z,98306.12
2019-05-13T16:00:52.335Z,98308.49
2019-05-13T16:03:21.401Z,98306.48
2019-05-13T16:05:51.646Z,98302.89
2019-05-13T16:08:20.506Z,98301.47
2019-05-13T16:10:49.249Z,98303.95
2019-05-13T16:13:18.034Z,98296.23
2019-05-13T16:15:46.736Z,98320.91
2019-05-13T16:18:15.447Z,98330.47
2019-05-13T16:20:45.380Z,98341.02
2019-05-13T16:23:14.354Z,98332.11
2019-05-13T16:25:43.102Z,98333.12
2019-05-13T16:28:11.882Z,98322.75
2019-05-13T16:30:42.008Z,98319.30
2019-05-13T16:33:12.391Z,98322.84
2019-05-13T16:35:42.586Z,98323.32
2019-05-13T16:38:13.402Z,98323.84
2019-05-13T16:40:42.468Z,98327.88
2019-05-13T16:43:12.846Z,98328.44
2019-05-13T16:45:42.448Z,98325.45
2019-05-13T16:48:12.365Z,98335.12
2019-05-13T16:50:41.849Z,98336.01
2019-05-13T16:53:10.832Z,98335.25
2019-05-13T16:55:41.540Z,98327.86
2019-05-13T16:58:12.396Z,98313.88
2019-05-13T17:00:42.461Z,98314.33
2019-05-13T17:05:48.498Z,98344.99
2019-05-13T17:08:17.206Z,98344.61
2019-05-13T17:10:45.915Z,98348.60
2019-05-13T17:13:14.634Z,98363.52
2019-05-13T17:15:43.385Z,98351.73
2019-05-13T17:18:15.285Z,98360.06
2019-05-13T17:20:42.535Z,98355.30
2019-05-13T17:23:12.421Z,98362.72
2019-05-13T17:25:42.346Z,98365.86
2019-05-13T17:28:13.303Z,98375.02
2019-05-13T17:30:41.752Z,98382.91
2019-05-13T17:33:11.776Z,98393.45
2019-05-13T17:35:41.871Z,98388.70
2019-05-13T17:38:11.347Z,98385.66
2019-05-13T17:40:42.011Z,98384.36
2019-05-13T17:43:11.945Z,98382.23
2019-05-13T17:45:41.733Z,98373.98
2019-05-13T17:48:25.438Z,98371.34
2019-05-13T17:50:41.363Z,98373.55
2019-05-13T17:53:11.358Z,98381.41
2019-05-13T17:55:41.241Z,98378.33
2019-05-13T17:58:11.638Z,98369.21
2019-05-13T18:00:41.515Z,98377.05
2019-05-13T18:03:11.400Z,98384.01
2019-05-13T18:05:42.062Z,98389.72
2019-05-13T18:08:11.369Z,98391.50
2019-05-13T18:10:42.006Z,98397.21
2019-05-13T18:13:12.623Z,98394.16
2019-05-13T18:15:41.217Z,98389.78
2019-05-13T18:18:11.846Z,98392.45
2019-05-13T18:20:41.542Z,98401.14
2019-05-13T18:23:12.163Z,98392.45
2019-05-13T18:25:42.171Z,98391.15
2019-05-13T18:28:27.077Z,98395.13
2019-05-13T18:30:41.427Z,98395.16
2019-05-13T18:33:11.755Z,98389.95
2019-05-13T18:35:41.887Z,98393.91
2019-05-13T18:38:11.934Z,98397.83
2019-05-13T18:40:42.020Z,98406.95
2019-05-13T18:43:10.876Z,98434.81
2019-05-13T18:45:41.819Z,98419.56
2019-05-13T18:48:12.079Z,98409.97
2019-05-13T18:50:41.937Z,98402.14
2019-05-13T18:53:10.795Z,98407.37
2019-05-13T18:55:41.445Z,98423.89
2019-05-13T18:58:11.622Z,98426.08
2019-05-13T19:00:41.619Z,98422.98
2019-05-13T19:03:12.475Z,98421.67
2019-05-13T19:05:42.239Z,98436.92
2019-05-13T19:08:12.301Z,98441.23
2019-05-13T19:10:41.495Z,98459.50
2019-05-13T19:13:12.453Z,98462.11
2019-05-13T19:15:41.197Z,98474.28
2019-05-13T19:18:12.058Z,98473.86
2019-05-13T19:20:41.887Z,98476.41
2019-05-13T19:23:11.797Z,98476.41
2019-05-13T19:25:42.644Z,98479.87
2019-05-13T19:28:11.876Z,98470.30
2019-05-13T19:30:41.249Z,98478.53
2019-05-13T19:33:12.154Z,98486.73
2019-05-13T19:35:42.521Z,98494.63
2019-05-13T19:38:12.137Z,98484.58
2019-05-13T19:40:41.956Z,98487.09
2019-05-13T19:43:11.596Z,98477.49
2019-05-13T19:45:41.592Z,98485.31
2019-05-13T19:48:11.907Z,98455.23
2019-05-13T19:50:41.626Z,98440.88
2019-05-13T19:53:12.090Z,98452.55
2019-05-13T19:55:41.555Z,98452.09
2019-05-13T19:58:12.421Z,98454.62
2019-05-13T20:00:42.404Z,98460.65
2019-05-13T20:03:12.062Z,98464.09
2019-05-13T20:05:41.561Z,98457.56
2019-05-13T20:08:10.642Z,98459.76
2019-05-13T20:10:39.367Z,98456.18
2019-05-13T20:13:08.095Z,98456.16
2019-05-13T20:15:36.803Z,98452.63
2019-05-13T20:18:05.623Z,98462.17
2019-05-13T20:20:34.371Z,98453.51
2019-05-13T20:23:03.084Z,98458.73
2019-05-13T20:25:31.797Z,98456.03
2019-05-13T20:28:02.322Z,98445.48
2019-05-13T20:30:30.953Z,98451.98
2019-05-13T20:33:02.161Z,98452.81
2019-05-13T20:35:31.316Z,98446.27
2019-05-13T20:38:02.040Z,98431.47
2019-05-13T20:40:32.253Z,98438.38
2019-05-13T20:43:01.975Z,98439.59
2019-05-13T20:45:31.276Z,98436.91
2019-05-13T20:48:01.505Z,98444.19
2019-05-13T20:50:31.707Z,98438.95
2019-05-13T20:53:00.530Z,98432.84
2019-05-13T20:55:29.338Z,98432.86
2019-05-13T20:57:58.098Z,98437.61
2019-05-13T21:00:26.811Z,98433.63
2019-05-13T21:02:55.524Z,98434.46
2019-05-13T21:05:24.243Z,98417.95
2019-05-13T21:07:52.966Z,98420.95
2019-05-13T21:10:21.721Z,98422.26
2019-05-13T21:12:51.430Z,98420.86
2019-05-13T21:15:20.335Z,98420.93
2019-05-13T21:17:49.054Z,98423.45
2019-05-13T21:20:22.002Z,98410.89
2019-05-13T21:22:48.240Z,98411.36
2019-05-13T21:25:17.145Z,98404.40
2019-05-13T21:27:45.854Z,98403.09
2019-05-13T21:30:15.376Z,98416.05
2019-05-13T21:32:44.088Z,98395.55
2019-05-13T21:35:12.840Z,98389.05
2019-05-13T21:37:41.555Z,98395.15
2019-05-13T21:40:11.301Z,98383.09
2019-05-13T21:42:41.975Z,98389.70
2019-05-13T21:45:11.242Z,98394.05
2019-05-13T21:47:40.136Z,98387.66
2019-05-13T21:50:11.360Z,98379.86
2019-05-13T21:52:41.720Z,98380.29
2019-05-13T21:55:11.353Z,98374.66
2019-05-13T21:57:41.554Z,98376.77
2019-05-13T22:00:12.886Z,98382.80
2019-05-13T22:02:41.603Z,98380.08
2019-05-13T22:05:11.636Z,98393.13
2019-05-13T22:07:42.133Z,98398.41
2019-05-13T22:10:11.273Z,98398.89
2019-05-13T22:12:41.432Z,98399.80
2019-05-13T22:15:10.625Z,98406.27
2019-05-13T22:17:39.327Z,98395.73
2019-05-13T22:20:08.540Z,98399.64
2019-05-13T22:22:37.258Z,98393.91
2019-05-13T22:25:07.415Z,98391.25
2019-05-13T22:27:36.133Z,98403.48
2019-05-13T22:30:06.651Z,98403.14
2019-05-13T22:32:36.865Z,98402.75
2019-05-13T22:35:06.479Z,98395.22
2019-05-13T22:37:35.330Z,98390.90
2019-05-13T22:40:05.337Z,98396.11
2019-05-13T22:42:34.089Z,98390.99
2019-05-13T22:45:03.085Z,98390.87
2019-05-13T22:47:31.856Z,98379.06
2019-05-13T22:50:02.043Z,98374.31
2019-05-13T22:52:31.401Z,98389.39
2019-05-13T22:55:02.375Z,98397.73
2019-05-13T22:57:31.352Z,98386.83
2019-05-13T23:00:00.222Z,98374.57
2019-05-13T23:02:29.154Z,98370.98
2019-05-13T23:04:57.988Z,98376.16
2019-05-13T23:07:26.702Z,98379.28
2019-05-13T23:09:55.418Z,98379.16
2019-05-13T23:12:24.131Z,98368.63
2019-05-13T23:14:53.356Z,98357.38
2019-05-13T23:17:22.065Z,98370.36
2019-05-13T23:19:52.166Z,98361.23
2019-05-13T23:22:21.078Z,98361.67
2019-05-13T23:24:49.785Z,98366.05
2019-05-13T23:27:18.538Z,98356.09
2019-05-13T23:29:47.258Z,98356.20
2019-05-13T23:32:15.964Z,98356.98
2019-05-13T23:34:44.683Z,98353.06
2019-05-13T23:37:13.397Z,98360.70
2019-05-13T23:39:42.160Z,98366.84
2019-05-13T23:42:12.099Z,98361.63
2019-05-13T23:44:41.519Z,98366.03
2019-05-13T23:47:11.495Z,98368.69
2019-05-13T23:49:42.273Z,98376.17
2019-05-13T23:52:11.643Z,98367.50
2019-05-13T23:54:42.558Z,98367.73
2019-05-13T23:57:11.845Z,98355.81
2019-05-13T23:59:42.066Z,98360.09
